createdAt,value
2018-08-19T00:00:08.689Z,67.40
2018-08-19T00:02:36.342Z,67.30
2018-08-19T00:05:13.584Z,67.60
2018-08-19T00:07:41.221Z,68.00
2018-08-19T00:10:08.945Z,68.80
2018-08-19T00:12:38.597Z,68.80
2018-08-19T00:15:06.502Z,68.90
2018-08-19T00:17:34.249Z,69.40
2018-08-19T00:20:01.893Z,69.30
2018-08-19T00:22:29.541Z,69.10
2018-08-19T00:24:57.186Z,69.10
2018-08-19T00:27:24.814Z,68.90
2018-08-19T00:29:52.807Z,68.80
2018-08-19T00:32:20.541Z,68.40
2018-08-19T00:34:48.171Z,69.30
2018-08-19T00:37:15.933Z,70.20
2018-08-19T00:39:43.560Z,70.30
2018-08-19T00:42:11.274Z,71.00
2018-08-19T00:44:40.545Z,71.40
2018-08-19T00:47:09.054Z,71.70
2018-08-19T00:49:36.816Z,71.90
2018-08-19T00:52:06.781Z,71.80
2018-08-19T00:54:34.478Z,71.60
2018-08-19T00:57:02.273Z,71.60
2018-08-19T00:59:31.140Z,71.60
2018-08-19T01:01:58.882Z,71.60
2018-08-19T01:04:27.064Z,71.50
2018-08-19T01:06:56.991Z,71.20
2018-08-19T01:09:26.590Z,71.30
2018-08-19T01:11:54.337Z,71.10
2018-08-19T01:14:22.042Z,71.00
2018-08-19T01:16:49.774Z,70.70
2018-08-19T01:19:18.157Z,70.50
2018-08-19T01:21:50.245Z,70.30
2018-08-19T01:24:18.022Z,70.20
2018-08-19T01:26:45.725Z,70.00
2018-08-19T01:29:13.697Z,70.00
2018-08-19T01:31:41.457Z,69.70
2018-08-19T01:34:10.290Z,69.60
2018-08-19T01:36:37.981Z,69.50
2018-08-19T01:39:09.113Z,69.40
2018-08-19T01:41:37.674Z,69.20
2018-08-19T01:44:14.797Z,69.10
2018-08-19T01:46:45.065Z,68.90
2018-08-19T01:49:12.717Z,69.10
2018-08-19T01:51:41.502Z,68.80
2018-08-19T01:54:14.897Z,68.90
2018-08-19T01:56:43.006Z,68.90
2018-08-19T01:59:10.686Z,69.40
2018-08-19T02:01:45.726Z,69.90
2018-08-19T02:04:13.589Z,70.10
2018-08-19T02:06:42.353Z,70.40
2018-08-19T02:09:11.815Z,70.70
2018-08-19T02:11:43.661Z,70.40
2018-08-19T02:14:11.382Z,70.80
2018-08-19T02:16:39.356Z,70.90
2018-08-19T02:19:07.058Z,71.10
2018-08-19T02:21:34.743Z,70.80
2018-08-19T02:24:02.474Z,71.60
2018-08-19T02:26:30.633Z,71.80
2018-08-19T02:28:58.850Z,72.50
2018-08-19T02:31:26.509Z,73.00
2018-08-19T02:33:54.187Z,73.50
2018-08-19T02:36:21.825Z,73.60
2018-08-19T02:38:49.482Z,73.80
2018-08-19T02:41:17.242Z,73.70
2018-08-19T02:43:49.505Z,73.90
2018-08-19T02:46:17.562Z,74.20
2018-08-19T02:48:49.834Z,74.20
2018-08-19T02:51:18.605Z,74.00
2018-08-19T02:53:47.525Z,73.90
2018-08-19T02:56:15.869Z,73.80
2018-08-19T02:58:44.489Z,73.70
2018-08-19T03:01:13.132Z,73.70
2018-08-19T03:03:40.794Z,73.50
2018-08-19T03:06:08.655Z,73.30
2018-08-19T03:08:43.825Z,73.20
2018-08-19T03:11:12.198Z,73.00
2018-08-19T03:13:39.819Z,72.80
2018-08-19T03:16:07.528Z,72.60
2018-08-19T03:18:35.162Z,72.30
2018-08-19T03:21:02.866Z,72.30
2018-08-19T03:23:30.524Z,72.30
2018-08-19T03:25:58.669Z,72.90
2018-08-19T03:28:26.314Z,72.20
2018-08-19T03:31:00.533Z,71.40
2018-08-19T03:33:28.376Z,71.40
2018-08-19T03:35:56.043Z,72.00
2018-08-19T03:38:25.070Z,73.10
2018-08-19T03:40:53.782Z,74.20
2018-08-19T03:43:21.414Z,74.20
2018-08-19T03:45:49.049Z,74.60
2018-08-19T03:48:16.700Z,75.00
2018-08-19T03:50:44.338Z,75.10
2018-08-19T03:53:13.433Z,75.10
2018-08-19T03:55:41.110Z,75.10
2018-08-19T03:58:09.876Z,74.90
2018-08-19T04:00:41.702Z,74.70
2018-08-19T04:03:18.023Z,74.90
2018-08-19T04:05:49.273Z,74.90
2018-08-19T04:08:16.922Z,74.90
2018-08-19T04:10:45.631Z,74.60
2018-08-19T04:13:26.789Z,74.40
2018-08-19T04:16:05.166Z,73.80
2018-08-19T04:18:36.167Z,73.80
2018-08-19T04:21:06.113Z,73.60
2018-08-19T04:23:34.166Z,73.40
2018-08-19T04:26:02.309Z,73.20
2018-08-19T04:28:30.079Z,73.20
2018-08-19T04:30:57.914Z,72.80
2018-08-19T04:33:31.731Z,72.40
2018-08-19T04:35:59.524Z,72.20
2018-08-19T04:38:28.045Z,72.10
2018-08-19T04:40:56.441Z,71.60
2018-08-19T04:43:25.948Z,71.60
2018-08-19T04:45:53.868Z,71.50
2018-08-19T04:48:21.574Z,71.40
2018-08-19T04:50:51.282Z,71.20
2018-08-19T04:53:19.190Z,70.80
2018-08-19T04:55:46.872Z,71.10
2018-08-19T04:58:14.662Z,71.30
2018-08-19T05:00:42.697Z,71.70
2018-08-19T05:03:10.661Z,71.70
2018-08-19T05:05:38.620Z,71.90
2018-08-19T05:08:07.253Z,72.60
2018-08-19T05:10:34.782Z,72.50
2018-08-19T05:13:02.409Z,72.80
2018-08-19T05:15:30.166Z,73.00
2018-08-19T05:17:57.944Z,72.70
2018-08-19T05:20:25.618Z,72.60
2018-08-19T05:22:53.237Z,72.40
2018-08-19T05:25:20.909Z,72.30
2018-08-19T05:27:54.093Z,73.10
2018-08-19T05:30:21.768Z,72.70
2018-08-19T05:32:54.957Z,72.60
2018-08-19T05:35:22.601Z,72.70
2018-08-19T05:37:50.287Z,73.20
2018-08-19T05:40:17.911Z,72.70
2018-08-19T05:42:45.557Z,72.60
2018-08-19T05:45:13.193Z,72.60
2018-08-19T05:47:40.851Z,72.50
2018-08-19T05:50:08.505Z,72.70
2018-08-19T05:52:36.186Z,73.20
2018-08-19T05:55:04.120Z,72.90
2018-08-19T05:57:33.177Z,72.30
2018-08-19T06:05:31.837Z,71.90
2018-08-19T06:08:07.345Z,71.70
2018-08-19T06:10:35.073Z,72.20
2018-08-19T06:13:02.713Z,71.80
2018-08-19T06:15:30.429Z,71.30
2018-08-19T06:17:58.323Z,71.20
2018-08-19T06:20:27.984Z,71.80
2018-08-19T06:22:55.857Z,72.30
2018-08-19T06:25:23.637Z,72.70
2018-08-19T06:27:53.792Z,72.20
2018-08-19T06:30:21.498Z,71.90
2018-08-19T06:32:49.188Z,71.40
2018-08-19T06:35:16.878Z,71.50
2018-08-19T06:37:44.591Z,71.80
2018-08-19T06:40:15.413Z,72.20
2018-08-19T06:42:43.165Z,73.00
2018-08-19T06:45:11.660Z,72.20
2018-08-19T06:47:39.563Z,71.90
2018-08-19T06:50:16.322Z,71.10
2018-08-19T06:52:44.067Z,70.30
2018-08-19T06:55:13.385Z,69.50
2018-08-19T06:57:41.650Z,68.00
2018-08-19T07:00:14.953Z,67.70
2018-08-19T07:02:42.733Z,66.60
2018-08-19T07:05:10.498Z,66.20
2018-08-19T07:07:38.203Z,65.40
2018-08-19T07:10:06.183Z,65.10
2018-08-19T07:12:33.924Z,66.30
2018-08-19T07:15:01.579Z,67.20
2018-08-19T07:17:29.264Z,67.70
2018-08-19T07:19:56.941Z,67.10
2018-08-19T07:22:24.603Z,66.60
2018-08-19T07:24:52.242Z,66.30
2018-08-19T07:27:19.981Z,65.60
2018-08-19T07:29:47.668Z,65.50
2018-08-19T07:32:15.339Z,65.20
2018-08-19T07:34:42.975Z,64.40
2018-08-19T07:37:10.699Z,64.30
2018-08-19T07:39:45.259Z,64.10
2018-08-19T07:42:13.268Z,64.20
2018-08-19T07:44:40.906Z,64.60
2018-08-19T07:47:08.580Z,63.40
2018-08-19T07:49:36.257Z,62.40
2018-08-19T07:52:04.002Z,62.50
2018-08-19T07:54:33.039Z,63.30
2018-08-19T07:57:10.254Z,62.60
2018-08-19T07:59:37.910Z,62.50
2018-08-19T08:02:06.588Z,61.80
2018-08-19T08:04:38.800Z,62.30
2018-08-19T08:07:06.441Z,59.80
2018-08-19T08:09:34.088Z,59.30
2018-08-19T08:12:01.730Z,58.90
2018-08-19T08:14:30.609Z,58.80
2018-08-19T08:16:58.321Z,58.40
2018-08-19T08:19:25.982Z,58.70
2018-08-19T08:22:01.782Z,57.70
2018-08-19T08:24:29.987Z,56.70
2018-08-19T08:26:57.738Z,56.60
2018-08-19T08:29:25.510Z,56.10
2018-08-19T08:31:56.994Z,55.30
2018-08-19T08:34:26.576Z,54.10
2018-08-19T08:37:01.238Z,53.90
2018-08-19T08:39:29.503Z,54.10
2018-08-19T08:41:57.647Z,53.40
2018-08-19T08:44:25.554Z,53.80
2018-08-19T08:46:53.253Z,52.90
2018-08-19T08:49:20.929Z,52.00
2018-08-19T08:51:48.589Z,52.70
2018-08-19T08:54:16.375Z,52.70
2018-08-19T08:56:44.063Z,52.60
2018-08-19T08:59:12.462Z,51.50
2018-08-19T09:01:40.142Z,51.70
2018-08-19T09:04:07.838Z,51.80
2018-08-19T09:06:35.509Z,51.00
2018-08-19T09:09:04.279Z,50.90
2018-08-19T09:11:32.103Z,49.20
2018-08-19T09:13:59.851Z,49.00
2018-08-19T09:16:27.760Z,48.50
2018-08-19T09:18:55.800Z,49.00
2018-08-19T09:21:23.560Z,49.20
2018-08-19T09:23:51.287Z,48.30
2018-08-19T09:26:19.041Z,49.50
2018-08-19T09:28:46.734Z,49.80
2018-08-19T09:31:14.433Z,48.70
2018-08-19T09:33:42.119Z,47.60
2018-08-19T09:36:09.839Z,47.60
2018-08-19T09:38:37.658Z,47.60
2018-08-19T09:41:05.698Z,46.90
2018-08-19T09:43:33.995Z,47.80
2018-08-19T09:46:01.773Z,46.50
2018-08-19T09:48:29.737Z,45.50
2018-08-19T09:51:02.147Z,45.50
2018-08-19T09:53:29.993Z,44.20
2018-08-19T09:56:03.350Z,43.20
2018-08-19T09:58:31.104Z,40.60
2018-08-19T10:01:04.532Z,40.70
2018-08-19T10:03:32.375Z,40.30
2018-08-19T10:06:00.175Z,40.30
2018-08-19T10:08:27.950Z,39.90
2018-08-19T10:10:55.743Z,39.80
2018-08-19T10:13:23.455Z,39.20
2018-08-19T10:15:51.187Z,39.30
2018-08-19T10:18:19.012Z,37.80
2018-08-19T10:20:46.749Z,37.40
2018-08-19T10:23:14.620Z,38.50
2018-08-19T10:25:42.542Z,38.00
2018-08-19T10:28:10.260Z,39.30
2018-08-19T10:30:44.399Z,39.10
2018-08-19T10:33:12.231Z,40.50
2018-08-19T10:35:39.959Z,40.50
2018-08-19T10:38:07.685Z,40.00
2018-08-19T10:40:35.337Z,39.90
2018-08-19T10:43:10.603Z,40.40
2018-08-19T10:45:42.141Z,40.40
2018-08-19T10:48:12.748Z,40.00
2018-08-19T10:50:40.467Z,40.20
2018-08-19T10:53:14.495Z,39.50
2018-08-19T10:55:42.539Z,39.90
2018-08-19T10:58:10.223Z,39.60
2018-08-19T11:00:37.863Z,40.70
2018-08-19T11:03:27.074Z,41.70
2018-08-19T11:05:55.698Z,43.00
2018-08-19T11:08:23.437Z,42.50
2018-08-19T11:10:51.210Z,41.50
2018-08-19T11:13:21.701Z,41.60
2018-08-19T11:15:51.495Z,41.90
2018-08-19T11:18:27.265Z,40.70
2018-08-19T11:21:06.587Z,40.80
2018-08-19T11:23:38.644Z,40.00
2018-08-19T11:26:06.542Z,39.50
2018-08-19T11:28:37.645Z,40.90
2018-08-19T11:31:06.018Z,40.50
2018-08-19T11:33:40.862Z,40.60
2018-08-19T11:36:09.235Z,40.00
2018-08-19T11:38:37.586Z,40.90
2018-08-19T11:41:06.506Z,40.30
2018-08-19T11:43:38.022Z,39.60
2018-08-19T11:46:06.206Z,40.10
2018-08-19T11:48:34.202Z,40.10
2018-08-19T11:51:01.893Z,40.40
2018-08-19T11:53:29.773Z,40.30
2018-08-19T11:55:57.897Z,40.40
2018-08-19T11:58:48.219Z,39.20
2018-08-19T12:01:17.398Z,40.70
2018-08-19T12:03:59.231Z,40.10
2018-08-19T12:06:29.116Z,40.20
2018-08-19T12:08:58.249Z,40.10
2018-08-19T12:11:27.717Z,40.00
2018-08-19T12:13:55.553Z,39.40
2018-08-19T12:16:25.402Z,40.30
2018-08-19T12:18:53.172Z,40.80
2018-08-19T12:21:22.040Z,40.50
2018-08-19T12:23:50.362Z,40.70
2018-08-19T12:26:18.490Z,41.30
2018-08-19T12:28:46.227Z,40.20
2018-08-19T12:31:15.442Z,40.60
2018-08-19T12:33:43.123Z,40.80
2018-08-19T12:36:10.845Z,41.80
2018-08-19T12:38:38.555Z,41.20
2018-08-19T12:41:06.307Z,41.40
2018-08-19T12:43:34.714Z,40.90
2018-08-19T12:46:02.847Z,40.60
2018-08-19T12:48:30.731Z,40.40
2018-08-19T12:51:03.007Z,39.80
2018-08-19T12:53:31.309Z,40.80
2018-08-19T12:55:59.077Z,40.00
2018-08-19T12:58:26.757Z,40.10
2018-08-19T13:00:54.412Z,40.50
2018-08-19T13:03:25.184Z,40.40
2018-08-19T13:06:00.670Z,40.40
2018-08-19T13:08:28.369Z,40.20
2018-08-19T13:10:59.690Z,40.50
2018-08-19T13:13:27.430Z,40.60
2018-08-19T13:15:55.084Z,40.20
2018-08-19T13:18:28.827Z,39.80
2018-08-19T13:21:02.019Z,41.00
2018-08-19T13:23:31.621Z,40.90
2018-08-19T13:25:59.411Z,40.60
2018-08-19T13:28:27.142Z,41.20
2018-08-19T13:30:54.817Z,40.80
2018-08-19T13:33:23.793Z,41.20
2018-08-19T13:35:51.495Z,40.90
2018-08-19T13:38:31.834Z,41.20
2018-08-19T13:41:00.587Z,40.80
2018-08-19T13:43:28.373Z,40.60
2018-08-19T13:45:56.042Z,40.30
2018-08-19T13:48:23.738Z,39.90
2018-08-19T13:50:51.399Z,39.60
2018-08-19T13:53:19.078Z,39.60
2018-08-19T13:55:46.769Z,39.80
2018-08-19T13:58:14.409Z,39.60
2018-08-19T14:00:42.126Z,40.00
2018-08-19T14:03:10.074Z,39.90
2018-08-19T14:05:37.973Z,39.90
2018-08-19T14:08:05.879Z,40.10
2018-08-19T14:10:33.572Z,40.70
2018-08-19T14:13:01.280Z,40.10
2018-08-19T14:15:28.982Z,40.00
2018-08-19T14:17:56.686Z,40.10
2018-08-19T14:20:24.442Z,39.70
2018-08-19T14:22:52.241Z,39.20
2018-08-19T14:25:20.010Z,39.70
2018-08-19T14:27:47.882Z,39.40
2018-08-19T14:30:15.700Z,39.30
2018-08-19T14:32:44.680Z,39.00
2018-08-19T14:35:12.481Z,39.00
2018-08-19T14:37:40.525Z,39.10
2018-08-19T14:40:10.288Z,39.40
2018-08-19T14:42:38.027Z,39.00
2018-08-19T14:45:06.129Z,39.70
2018-08-19T14:47:33.812Z,39.60
2018-08-19T14:50:01.527Z,39.00
2018-08-19T14:52:29.276Z,39.40
2018-08-19T14:54:57.035Z,38.90
2018-08-19T14:57:24.973Z,39.00
2018-08-19T14:59:52.740Z,39.00
2018-08-19T15:02:20.397Z,39.20
2018-08-19T15:04:48.242Z,38.50
2018-08-19T15:07:16.087Z,38.60
2018-08-19T15:09:50.005Z,38.40
2018-08-19T15:12:25.965Z,38.50
2018-08-19T15:14:57.864Z,38.20
2018-08-19T15:17:25.665Z,37.50
2018-08-19T15:19:53.765Z,38.70
2018-08-19T15:22:21.697Z,38.30
2018-08-19T15:24:49.767Z,38.20
2018-08-19T15:27:17.461Z,37.50
2018-08-19T15:29:47.017Z,38.00
2018-08-19T15:32:14.921Z,38.30
2018-08-19T15:34:42.518Z,38.10
2018-08-19T15:37:10.222Z,38.10
2018-08-19T15:39:37.871Z,38.20
2018-08-19T15:42:05.654Z,38.20
2018-08-19T15:44:33.266Z,38.20
2018-08-19T15:47:00.989Z,38.30
2018-08-19T15:49:28.789Z,38.10
2018-08-19T15:51:56.475Z,38.30
2018-08-19T15:54:24.180Z,39.00
2018-08-19T15:56:51.845Z,38.70
2018-08-19T15:59:19.461Z,38.60
2018-08-19T16:01:47.126Z,38.10
2018-08-19T16:04:21.478Z,38.40
2018-08-19T16:06:50.782Z,38.20
2018-08-19T16:09:19.823Z,38.70
2018-08-19T16:11:49.083Z,37.90
2018-08-19T16:14:23.082Z,38.00
2018-08-19T16:16:51.182Z,38.10
2018-08-19T16:19:18.870Z,37.80
2018-08-19T16:21:52.230Z,37.90
2018-08-19T16:24:19.980Z,37.50
2018-08-19T16:26:47.709Z,37.90
2018-08-19T16:29:15.360Z,37.30
2018-08-19T16:31:43.219Z,37.50
2018-08-19T16:34:11.016Z,37.60
2018-08-19T16:36:38.689Z,37.80
2018-08-19T16:39:08.989Z,38.20
2018-08-19T16:41:36.971Z,38.20
2018-08-19T16:44:04.728Z,38.10
2018-08-19T16:46:32.414Z,38.40
2018-08-19T16:49:00.075Z,38.10
2018-08-19T16:51:27.783Z,38.20
2018-08-19T16:53:55.486Z,38.10
2018-08-19T16:56:23.174Z,38.30
2018-08-19T16:58:50.871Z,38.50
2018-08-19T17:01:18.515Z,38.70
2018-08-19T17:03:46.175Z,38.40
2018-08-19T17:06:14.552Z,38.60
2018-08-19T17:08:42.712Z,38.90
2018-08-19T17:11:11.644Z,38.70
2018-08-19T17:13:39.459Z,38.60
2018-08-19T17:16:07.390Z,38.70
2018-08-19T17:18:35.201Z,38.90
2018-08-19T17:21:03.015Z,38.80
2018-08-19T17:23:30.871Z,39.00
2018-08-19T17:26:14.728Z,39.20
2018-08-19T17:28:42.267Z,38.90
2018-08-19T17:31:09.934Z,39.20
2018-08-19T17:33:37.631Z,39.20
2018-08-19T17:36:05.327Z,38.90
2018-08-19T17:38:34.407Z,39.60
2018-08-19T17:41:02.463Z,39.50
2018-08-19T17:43:35.817Z,39.40
2018-08-19T17:46:09.810Z,39.80
2018-08-19T17:48:38.896Z,39.90
2018-08-19T17:51:18.477Z,39.90
2018-08-19T17:53:46.152Z,40.10
2018-08-19T17:56:13.833Z,40.20
2018-08-19T17:58:41.550Z,40.20
2018-08-19T18:01:09.209Z,40.60
2018-08-19T18:03:36.885Z,40.70
2018-08-19T18:06:04.718Z,40.70
2018-08-19T18:08:32.387Z,40.80
2018-08-19T18:11:00.076Z,41.10
2018-08-19T18:13:29.896Z,41.40
2018-08-19T18:15:57.601Z,41.40
2018-08-19T18:18:25.294Z,41.50
2018-08-19T18:20:52.955Z,41.50
2018-08-19T18:23:25.652Z,41.40
2018-08-19T18:25:53.410Z,41.20
2018-08-19T18:28:24.427Z,41.40
2018-08-19T18:31:07.571Z,41.50
2018-08-19T18:33:41.541Z,41.60
2018-08-19T18:36:09.199Z,41.60
2018-08-19T18:38:36.886Z,41.80
2018-08-19T18:41:04.746Z,41.90
2018-08-19T18:43:32.426Z,41.90
2018-08-19T18:46:00.229Z,42.10
2018-08-19T18:48:27.850Z,42.10
2018-08-19T18:50:56.110Z,42.60
2018-08-19T18:53:24.382Z,42.80
2018-08-19T18:55:51.993Z,43.30
2018-08-19T18:58:19.703Z,43.10
2018-08-19T19:00:52.917Z,43.00
2018-08-19T19:03:20.552Z,43.30
2018-08-19T19:05:48.221Z,43.40
2018-08-19T19:08:17.662Z,43.70
2018-08-19T19:10:56.047Z,43.80
2018-08-19T19:13:24.727Z,43.90
2018-08-19T19:15:52.382Z,44.00
2018-08-19T19:18:20.126Z,44.30
2018-08-19T19:20:52.321Z,44.20
2018-08-19T19:23:24.963Z,44.40
2018-08-19T19:25:52.669Z,44.40
2018-08-19T19:28:20.447Z,44.60
2018-08-19T19:30:48.520Z,44.60
2018-08-19T19:33:16.231Z,44.80
2018-08-19T19:35:43.898Z,44.80
2018-08-19T19:38:11.706Z,45.00
2018-08-19T19:40:39.417Z,45.20
2018-08-19T19:43:07.100Z,45.30
2018-08-19T19:46:07.126Z,45.30
2018-08-19T19:48:34.758Z,45.50
2018-08-19T19:51:02.565Z,45.50
2018-08-19T19:53:30.285Z,46.50
2018-08-19T19:56:16.370Z,47.60
2018-08-19T19:58:45.093Z,47.50
2018-08-19T20:01:12.977Z,47.80
2018-08-19T20:03:46.228Z,48.00
2018-08-19T20:06:13.918Z,48.50
2018-08-19T20:08:41.546Z,48.60
2018-08-19T20:11:21.012Z,48.60
2018-08-19T20:13:49.127Z,48.90
2018-08-19T20:16:16.870Z,49.10
2018-08-19T20:18:44.535Z,49.30
2018-08-19T20:21:16.719Z,49.10
2018-08-19T20:23:44.364Z,50.00
2018-08-19T20:26:12.016Z,49.50
2018-08-19T20:28:39.650Z,49.90
2018-08-19T20:31:07.611Z,50.70
2018-08-19T20:33:35.240Z,51.20
2018-08-19T20:36:02.967Z,51.50
2018-08-19T20:38:30.623Z,51.40
2018-08-19T20:40:58.280Z,52.10
2018-08-19T20:43:25.942Z,52.10
2018-08-19T20:45:53.579Z,52.10
2018-08-19T20:48:21.916Z,52.00
2018-08-19T20:50:50.074Z,53.00
2018-08-19T20:53:18.082Z,52.30
2018-08-19T20:55:45.907Z,52.60
2018-08-19T20:58:13.613Z,53.20
2018-08-19T21:00:41.285Z,53.50
2018-08-19T21:03:09.329Z,54.20
2018-08-19T21:05:37.470Z,55.10
2018-08-19T21:08:10.117Z,56.00
2018-08-19T21:10:39.568Z,56.80
2018-08-19T21:13:07.862Z,57.50
2018-08-19T21:15:38.661Z,57.90
2018-08-19T21:18:07.065Z,58.20
2018-08-19T21:20:34.802Z,58.10
2018-08-19T21:23:03.221Z,58.60
2018-08-19T21:25:30.866Z,58.10
2018-08-19T21:27:58.522Z,58.00
2018-08-19T21:30:26.201Z,58.30
2018-08-19T21:32:54.789Z,57.90
2018-08-19T21:35:22.434Z,57.80
2018-08-19T21:37:50.073Z,57.80
2018-08-19T21:40:24.965Z,58.00
2018-08-19T21:42:55.304Z,58.20
2018-08-19T21:45:23.006Z,58.60
2018-08-19T21:47:50.682Z,59.20
2018-08-19T21:50:18.345Z,59.70
2018-08-19T21:52:58.261Z,60.00
2018-08-19T21:55:28.710Z,61.10
2018-08-19T21:57:56.372Z,60.30
2018-08-19T22:00:26.165Z,60.50
2018-08-19T22:03:57.454Z,60.60
2018-08-19T22:06:25.078Z,61.00
2018-08-19T22:08:52.719Z,61.80
2018-08-19T22:11:20.338Z,61.90
2018-08-19T22:13:47.997Z,62.20
2018-08-19T22:16:15.648Z,62.10
2018-08-19T22:18:43.303Z,61.90
2018-08-19T22:21:16.789Z,61.80
2018-08-19T22:23:45.644Z,61.60
2018-08-19T22:26:15.344Z,61.20
2018-08-19T22:28:43.320Z,61.20
2018-08-19T22:31:22.918Z,61.00
2018-08-19T22:33:52.542Z,60.70
2018-08-19T22:36:20.527Z,61.10
2018-08-19T22:38:48.597Z,62.20
2018-08-19T22:41:23.744Z,61.80
2018-08-19T22:43:52.161Z,62.10
2018-08-19T22:46:19.849Z,62.20
2018-08-19T22:48:47.573Z,62.70
2018-08-19T22:51:15.324Z,62.70
2018-08-19T22:53:42.941Z,62.60
2018-08-19T22:56:10.614Z,62.40
2018-08-19T22:58:38.257Z,62.30
2018-08-19T23:01:06.360Z,62.10
2018-08-19T23:03:34.058Z,62.20
2018-08-19T23:06:01.713Z,62.30
2018-08-19T23:08:30.557Z,62.40
2018-08-19T23:10:59.393Z,62.40
2018-08-19T23:13:38.486Z,62.50
2018-08-19T23:16:08.095Z,62.60
2018-08-19T23:18:36.305Z,62.50
2018-08-19T23:21:04.042Z,62.90
2018-08-19T23:23:31.990Z,62.30
2018-08-19T23:25:59.677Z,62.50
2018-08-19T23:28:27.390Z,62.90
2018-08-19T23:30:55.405Z,63.20
2018-08-19T23:33:23.073Z,63.30
2018-08-19T23:35:50.711Z,63.40
2018-08-19T23:38:18.398Z,63.30
2018-08-19T23:40:46.199Z,63.30
2018-08-19T23:43:14.265Z,63.70
2018-08-19T23:45:41.935Z,63.70
2018-08-19T23:48:09.867Z,64.10
2018-08-19T23:50:38.478Z,64.30
2018-08-19T23:53:06.610Z,64.50
2018-08-19T23:55:34.590Z,64.80
2018-08-19T23:58:02.282Z,65.20
